createdAt,value
2024-01-11T00:02:51.139Z,8.00
2024-01-11T00:17:51.644Z,0.00
2024-01-11T00:32:52.130Z,0.00
2024-01-11T00:47:52.539Z,8.00
2024-01-11T01:02:53.087Z,4.00
2024-01-11T01:17:53.748Z,4.00
2024-01-11T01:32:54.477Z,0.00
2024-01-11T01:47:55.085Z,8.00
2024-01-11T02:02:55.631Z,8.00
2024-01-11T02:17:55.920Z,12.00
2024-01-11T02:32:56.707Z,4.00
2024-01-11T02:47:57.266Z,24.00
2024-01-11T03:02:57.637Z,12.00
2024-01-11T03:17:58.274Z,24.00
2024-01-11T03:32:59.117Z,12.00
2024-01-11T03:47:59.726Z,24.00
2024-01-11T04:03:00.214Z,12.00
2024-01-11T04:18:00.705Z,28.00
2024-01-11T04:33:01.240Z,60.00
2024-01-11T04:48:01.686Z,128.00
2024-01-11T05:03:02.067Z,80.00
2024-01-11T05:18:03.021Z,96.00
2024-01-11T05:33:03.490Z,64.00
2024-01-11T05:48:04.169Z,140.00
2024-01-11T06:03:04.531Z,76.00
2024-01-11T06:18:05.468Z,88.00
2024-01-11T06:33:05.906Z,104.00
2024-01-11T06:48:06.263Z,140.00
2024-01-11T07:03:06.873Z,156.00
2024-01-11T07:18:07.644Z,120.00
2024-01-11T07:33:09.436Z,124.00
2024-01-11T07:48:08.804Z,88.00
2024-01-11T08:03:09.317Z,80.00
2024-01-11T08:18:10.100Z,100.00
2024-01-11T08:33:10.901Z,108.00
2024-01-11T08:48:11.640Z,104.00
2024-01-11T09:03:12.216Z,80.00
2024-01-11T09:18:12.583Z,72.00
2024-01-11T09:33:12.945Z,112.00
2024-01-11T09:48:13.828Z,132.00
2024-01-11T10:03:14.237Z,104.00
2024-01-11T10:18:15.127Z,128.00
2024-01-11T10:33:15.396Z,112.00
2024-01-11T10:48:16.318Z,132.00
2024-01-11T11:03:16.649Z,96.00
2024-01-11T11:18:17.272Z,164.00
2024-01-11T11:33:18.066Z,136.00
2024-01-11T11:48:18.833Z,152.00
2024-01-11T12:03:19.470Z,136.00
2024-01-11T12:18:20.087Z,204.00
2024-01-11T12:33:20.589Z,88.00
2024-01-11T12:48:20.874Z,156.00
2024-01-11T13:03:21.555Z,172.00
2024-01-11T13:18:22.206Z,108.00
2024-01-11T13:33:22.677Z,156.00
2024-01-11T13:48:23.195Z,184.00
2024-01-11T14:03:23.911Z,144.00
2024-01-11T14:18:24.613Z,176.00
2024-01-11T14:33:25.369Z,188.00
2024-01-11T14:48:26.090Z,208.00
2024-01-11T15:03:26.642Z,196.00
2024-01-11T15:18:27.189Z,220.00
2024-01-11T15:33:27.801Z,248.00
2024-01-11T15:48:28.633Z,256.00
2024-01-11T16:03:28.747Z,168.00
2024-01-11T16:18:29.228Z,248.00
2024-01-11T16:33:29.916Z,260.00
2024-01-11T16:48:30.507Z,220.00
2024-01-11T17:03:30.794Z,140.00
2024-01-11T17:18:31.602Z,168.00
2024-01-11T17:33:32.338Z,116.00
2024-01-11T17:48:32.819Z,128.00
2024-01-11T18:03:33.713Z,148.00
2024-01-11T18:18:34.123Z,140.00
2024-01-11T18:33:34.510Z,84.00
2024-01-11T18:48:34.968Z,104.00
2024-01-11T19:03:35.537Z,68.00
2024-01-11T19:18:35.938Z,72.00
2024-01-11T19:33:36.507Z,84.00
2024-01-11T19:48:37.096Z,56.00
2024-01-11T20:03:37.592Z,36.00
2024-01-11T20:18:39.109Z,24.00
2024-01-11T20:33:38.749Z,36.00
2024-01-11T20:48:39.597Z,16.00
2024-01-11T21:03:40.181Z,36.00
2024-01-11T21:18:40.723Z,52.00
2024-01-11T21:33:41.153Z,72.00
2024-01-11T21:48:41.634Z,64.00
2024-01-11T22:03:42.093Z,116.00
2024-01-11T22:18:42.704Z,56.00
2024-01-11T22:33:42.846Z,36.00
2024-01-11T22:48:43.594Z,20.00
2024-01-11T23:03:44.035Z,12.00
2024-01-11T23:18:44.785Z,12.00
2024-01-11T23:33:45.015Z,28.00
2024-01-11T23:48:45.662Z,32.00
